sensor_id;sensor_type;location;lat;lon;timestamp;P1;durP1;ratioP1;P2;durP2;ratioP2
33421;SDS011;19763;55.798;37.782;2022-07-05T00:00:45;14.07;;;12.10;;
33421;SDS011;19763;55.798;37.782;2022-07-05T00:03:11;16.08;;;13.45;;
33421;SDS011;19763;55.798;37.782;2022-07-05T00:05:37;18.80;;;13.80;;
33421;SDS011;19763;55.798;37.782;2022-07-05T00:08:03;14.75;;;13.30;;
33421;SDS011;19763;55.798;37.782;2022-07-05T00:10:30;14.55;;;12.95;;
33421;SDS011;19763;55.798;37.782;2022-07-05T00:12:57;14.10;;;12.80;;
33421;SDS011;19763;55.798;37.782;2022-07-05T00:15:22;15.27;;;13.35;;
33421;SDS011;19763;55.798;37.782;2022-07-05T00:17:48;13.50;;;12.10;;
33421;SDS011;19763;55.798;37.782;2022-07-05T00:20:14;17.23;;;13.63;;
33421;SDS011;19763;55.798;37.782;2022-07-05T00:22:40;16.52;;;13.40;;
33421;SDS011;19763;55.798;37.782;2022-07-05T00:25:05;15.15;;;13.13;;
33421;SDS011;19763;55.798;37.782;2022-07-05T00:27:31;14.52;;;13.05;;
33421;SDS011;19763;55.798;37.782;2022-07-05T00:29:57;15.95;;;13.68;;
33421;SDS011;19763;55.798;37.782;2022-07-05T00:32:22;18.77;;;13.73;;
33421;SDS011;19763;55.798;37.782;2022-07-05T00:34:48;15.35;;;13.73;;
33421;SDS011;19763;55.798;37.782;2022-07-05T00:37:14;13.85;;;12.55;;
33421;SDS011;19763;55.798;37.782;2022-07-05T00:39:39;16.67;;;13.70;;
33421;SDS011;19763;55.798;37.782;2022-07-05T00:42:05;14.82;;;13.35;;
33421;SDS011;19763;55.798;37.782;2022-07-05T00:44:32;16.85;;;13.00;;
33421;SDS011;19763;55.798;37.782;2022-07-05T00:47:03;16.00;;;13.50;;
33421;SDS011;19763;55.798;37.782;2022-07-05T00:49:30;15.98;;;12.73;;
33421;SDS011;19763;55.798;37.782;2022-07-05T00:51:57;15.52;;;12.77;;
33421;SDS011;19763;55.798;37.782;2022-07-05T00:54:24;17.23;;;13.70;;
33421;SDS011;19763;55.798;37.782;2022-07-05T00:56:49;14.85;;;12.75;;
33421;SDS011;19763;55.798;37.782;2022-07-05T00:59:16;17.00;;;13.82;;
33421;SDS011;19763;55.798;37.782;2022-07-05T01:01:42;14.30;;;12.80;;
33421;SDS011;19763;55.798;37.782;2022-07-05T01:04:08;15.30;;;13.68;;
33421;SDS011;19763;55.798;37.782;2022-07-05T01:06:34;14.50;;;13.05;;
33421;SDS011;19763;55.798;37.782;2022-07-05T01:08:59;15.48;;;12.68;;
33421;SDS011;19763;55.798;37.782;2022-07-05T01:11:26;16.27;;;13.02;;
33421;SDS011;19763;55.798;37.782;2022-07-05T01:13:51;15.20;;;12.60;;
33421;SDS011;19763;55.798;37.782;2022-07-05T01:16:17;15.27;;;12.82;;
33421;SDS011;19763;55.798;37.782;2022-07-05T01:18:43;17.15;;;12.93;;
33421;SDS011;19763;55.798;37.782;2022-07-05T01:21:09;14.38;;;12.93;;
33421;SDS011;19763;55.798;37.782;2022-07-05T01:23:40;17.55;;;13.00;;
33421;SDS011;19763;55.798;37.782;2022-07-05T01:26:06;15.75;;;13.50;;
33421;SDS011;19763;55.798;37.782;2022-07-05T01:28:32;15.25;;;13.07;;
33421;SDS011;19763;55.798;37.782;2022-07-05T01:31:00;16.77;;;12.98;;
33421;SDS011;19763;55.798;37.782;2022-07-05T01:33:30;14.75;;;13.25;;
33421;SDS011;19763;55.798;37.782;2022-07-05T01:35:56;16.23;;;12.82;;
33421;SDS011;19763;55.798;37.782;2022-07-05T01:38:22;15.73;;;13.48;;
33421;SDS011;19763;55.798;37.782;2022-07-05T01:40:49;17.30;;;13.18;;
33421;SDS011;19763;55.798;37.782;2022-07-05T01:43:19;17.48;;;13.10;;
33421;SDS011;19763;55.798;37.782;2022-07-05T01:45:46;15.77;;;14.13;;
33421;SDS011;19763;55.798;37.782;2022-07-05T01:48:12;14.73;;;12.80;;
33421;SDS011;19763;55.798;37.782;2022-07-05T01:50:51;14.05;;;12.63;;
33421;SDS011;19763;55.798;37.782;2022-07-05T01:53:19;15.05;;;13.43;;
33421;SDS011;19763;55.798;37.782;2022-07-05T01:55:58;15.55;;;13.98;;
33421;SDS011;19763;55.798;37.782;2022-07-05T01:58:25;14.80;;;13.40;;
33421;SDS011;19763;55.798;37.782;2022-07-05T02:00:52;17.20;;;13.32;;
33421;SDS011;19763;55.798;37.782;2022-07-05T02:03:18;15.50;;;13.90;;
33421;SDS011;19763;55.798;37.782;2022-07-05T02:05:44;21.15;;;13.90;;
33421;SDS011;19763;55.798;37.782;2022-07-05T02:08:11;19.20;;;13.93;;
33421;SDS011;19763;55.798;37.782;2022-07-05T02:10:38;15.68;;;13.65;;
33421;SDS011;19763;55.798;37.782;2022-07-05T02:13:05;19.50;;;15.18;;
33421;SDS011;19763;55.798;37.782;2022-07-05T02:15:31;17.77;;;13.93;;
33421;SDS011;19763;55.798;37.782;2022-07-05T02:18:02;20.70;;;14.85;;
33421;SDS011;19763;55.798;37.782;2022-07-05T02:20:29;17.75;;;13.82;;
33421;SDS011;19763;55.798;37.782;2022-07-05T02:22:57;18.70;;;13.57;;
33421;SDS011;19763;55.798;37.782;2022-07-05T02:25:23;15.88;;;14.02;;
33421;SDS011;19763;55.798;37.782;2022-07-05T02:27:49;22.05;;;14.88;;
33421;SDS011;19763;55.798;37.782;2022-07-05T02:30:15;14.77;;;13.27;;
33421;SDS011;19763;55.798;37.782;2022-07-05T02:32:41;18.23;;;13.50;;
33421;SDS011;19763;55.798;37.782;2022-07-05T02:35:08;14.70;;;12.77;;
33421;SDS011;19763;55.798;37.782;2022-07-05T02:37:34;16.08;;;13.57;;
33421;SDS011;19763;55.798;37.782;2022-07-05T02:40:01;15.95;;;14.32;;
33421;SDS011;19763;55.798;37.782;2022-07-05T02:42:28;15.43;;;13.85;;
33421;SDS011;19763;55.798;37.782;2022-07-05T02:44:53;15.07;;;13.23;;
33421;SDS011;19763;55.798;37.782;2022-07-05T02:47:19;16.10;;;14.40;;
33421;SDS011;19763;55.798;37.782;2022-07-05T02:49:44;16.15;;;14.40;;
33421;SDS011;19763;55.798;37.782;2022-07-05T02:52:10;17.33;;;13.90;;
33421;SDS011;19763;55.798;37.782;2022-07-05T02:54:35;17.55;;;13.73;;
33421;SDS011;19763;55.798;37.782;2022-07-05T02:57:01;18.98;;;13.02;;
33421;SDS011;19763;55.798;37.782;2022-07-05T02:59:27;15.73;;;13.88;;
33421;SDS011;19763;55.798;37.782;2022-07-05T03:01:52;15.27;;;12.80;;
33421;SDS011;19763;55.798;37.782;2022-07-05T03:04:18;15.30;;;13.43;;
33421;SDS011;19763;55.798;37.782;2022-07-05T03:06:44;15.18;;;13.32;;
33421;SDS011;19763;55.798;37.782;2022-07-05T03:09:09;16.42;;;13.48;;
33421;SDS011;19763;55.798;37.782;2022-07-05T03:11:35;18.38;;;14.13;;
33421;SDS011;19763;55.798;37.782;2022-07-05T03:14:01;15.45;;;13.38;;
33421;SDS011;19763;55.798;37.782;2022-07-05T03:16:26;15.02;;;13.43;;
33421;SDS011;19763;55.798;37.782;2022-07-05T03:18:52;15.48;;;12.88;;
33421;SDS011;19763;55.798;37.782;2022-07-05T03:21:18;18.23;;;13.60;;
33421;SDS011;19763;55.798;37.782;2022-07-05T03:23:43;16.70;;;12.23;;
33421;SDS011;19763;55.798;37.782;2022-07-05T03:26:09;14.35;;;12.95;;
33421;SDS011;19763;55.798;37.782;2022-07-05T03:28:34;14.73;;;12.75;;
33421;SDS011;19763;55.798;37.782;2022-07-05T03:31:00;16.63;;;13.88;;
33421;SDS011;19763;55.798;37.782;2022-07-05T03:33:26;14.82;;;13.13;;
33421;SDS011;19763;55.798;37.782;2022-07-05T03:35:52;14.45;;;12.25;;
33421;SDS011;19763;55.798;37.782;2022-07-05T03:38:17;13.25;;;11.93;;
33421;SDS011;19763;55.798;37.782;2022-07-05T03:40:43;14.50;;;11.63;;
33421;SDS011;19763;55.798;37.782;2022-07-05T03:43:09;13.23;;;11.82;;
33421;SDS011;19763;55.798;37.782;2022-07-05T03:45:34;17.63;;;12.05;;
33421;SDS011;19763;55.798;37.782;2022-07-05T03:48:00;16.40;;;12.43;;
33421;SDS011;19763;55.798;37.782;2022-07-05T03:50:26;14.52;;;12.55;;
33421;SDS011;19763;55.798;37.782;2022-07-05T03:52:52;13.52;;;12.13;;
33421;SDS011;19763;55.798;37.782;2022-07-05T03:55:18;12.80;;;11.23;;
33421;SDS011;19763;55.798;37.782;2022-07-05T03:57:44;13.10;;;11.55;;
33421;SDS011;19763;55.798;37.782;2022-07-05T04:00:11;13.48;;;11.52;;
33421;SDS011;19763;55.798;37.782;2022-07-05T04:02:37;16.98;;;11.05;;
33421;SDS011;19763;55.798;37.782;2022-07-05T04:05:03;13.57;;;10.32;;
33421;SDS011;19763;55.798;37.782;2022-07-05T04:07:29;13.13;;;11.50;;
33421;SDS011;19763;55.798;37.782;2022-07-05T04:09:55;14.52;;;11.43;;
33421;SDS011;19763;55.798;37.782;2022-07-05T04:12:21;13.70;;;11.25;;
33421;SDS011;19763;55.798;37.782;2022-07-05T04:14:46;17.30;;;12.50;;
33421;SDS011;19763;55.798;37.782;2022-07-05T04:17:12;12.93;;;11.27;;
33421;SDS011;19763;55.798;37.782;2022-07-05T04:19:37;15.85;;;12.80;;
33421;SDS011;19763;55.798;37.782;2022-07-05T04:22:03;13.63;;;11.98;;
33421;SDS011;19763;55.798;37.782;2022-07-05T04:24:29;16.52;;;12.52;;
33421;SDS011;19763;55.798;37.782;2022-07-05T04:26:54;17.60;;;12.32;;
33421;SDS011;19763;55.798;37.782;2022-07-05T04:29:20;17.42;;;12.43;;
33421;SDS011;19763;55.798;37.782;2022-07-05T04:31:45;14.52;;;11.35;;
33421;SDS011;19763;55.798;37.782;2022-07-05T04:34:11;13.60;;;11.73;;
33421;SDS011;19763;55.798;37.782;2022-07-05T04:36:37;14.50;;;11.23;;
33421;SDS011;19763;55.798;37.782;2022-07-05T04:39:05;17.48;;;12.52;;
33421;SDS011;19763;55.798;37.782;2022-07-05T04:41:32;12.10;;;10.80;;
33421;SDS011;19763;55.798;37.782;2022-07-05T04:43:58;11.95;;;10.63;;
33421;SDS011;19763;55.798;37.782;2022-07-05T04:46:24;13.77;;;10.52;;
33421;SDS011;19763;55.798;37.782;2022-07-05T04:48:49;14.27;;;10.77;;
33421;SDS011;19763;55.798;37.782;2022-07-05T04:51:15;12.63;;;11.27;;
33421;SDS011;19763;55.798;37.782;2022-07-05T04:53:41;13.68;;;10.95;;
33421;SDS011;19763;55.798;37.782;2022-07-05T04:56:07;17.63;;;11.60;;
33421;SDS011;19763;55.798;37.782;2022-07-05T04:58:32;11.38;;;10.25;;
33421;SDS011;19763;55.798;37.782;2022-07-05T05:00:58;14.43;;;10.93;;
33421;SDS011;19763;55.798;37.782;2022-07-05T05:03:24;12.23;;;10.38;;
33421;SDS011;19763;55.798;37.782;2022-07-05T05:05:50;14.30;;;11.02;;
33421;SDS011;19763;55.798;37.782;2022-07-05T05:08:15;12.32;;;10.55;;
33421;SDS011;19763;55.798;37.782;2022-07-05T05:10:41;11.98;;;10.23;;
33421;SDS011;19763;55.798;37.782;2022-07-05T05:13:06;10.98;;;9.88;;
33421;SDS011;19763;55.798;37.782;2022-07-05T05:15:32;14.50;;;10.38;;
33421;SDS011;19763;55.798;37.782;2022-07-05T05:17:57;16.35;;;10.35;;
33421;SDS011;19763;55.798;37.782;2022-07-05T05:20:23;16.65;;;10.70;;
33421;SDS011;19763;55.798;37.782;2022-07-05T05:22:48;13.10;;;9.73;;
33421;SDS011;19763;55.798;37.782;2022-07-05T05:25:14;11.55;;;9.80;;
33421;SDS011;19763;55.798;37.782;2022-07-05T05:27:44;17.92;;;10.43;;
33421;SDS011;19763;55.798;37.782;2022-07-05T05:32:37;13.05;;;9.20;;
33421;SDS011;19763;55.798;37.782;2022-07-05T05:35:03;12.18;;;9.23;;
33421;SDS011;19763;55.798;37.782;2022-07-05T05:37:30;11.40;;;9.13;;
33421;SDS011;19763;55.798;37.782;2022-07-05T05:39:55;13.10;;;8.73;;
33421;SDS011;19763;55.798;37.782;2022-07-05T05:42:21;12.77;;;8.23;;
33421;SDS011;19763;55.798;37.782;2022-07-05T05:44:47;14.05;;;9.15;;
33421;SDS011;19763;55.798;37.782;2022-07-05T05:47:12;9.82;;;8.48;;
33421;SDS011;19763;55.798;37.782;2022-07-05T05:49:38;10.75;;;8.70;;
33421;SDS011;19763;55.798;37.782;2022-07-05T05:52:04;14.43;;;8.25;;
33421;SDS011;19763;55.798;37.782;2022-07-05T05:54:29;9.52;;;8.52;;
33421;SDS011;19763;55.798;37.782;2022-07-05T05:56:55;10.23;;;7.95;;
33421;SDS011;19763;55.798;37.782;2022-07-05T05:59:20;12.93;;;8.30;;
33421;SDS011;19763;55.798;37.782;2022-07-05T06:01:46;9.65;;;7.78;;
33421;SDS011;19763;55.798;37.782;2022-07-05T06:04:11;10.45;;;8.18;;
33421;SDS011;19763;55.798;37.782;2022-07-05T06:06:37;9.57;;;7.50;;
33421;SDS011;19763;55.798;37.782;2022-07-05T06:09:03;11.00;;;7.88;;
33421;SDS011;19763;55.798;37.782;2022-07-05T06:11:28;8.55;;;7.75;;
33421;SDS011;19763;55.798;37.782;2022-07-05T06:13:55;8.20;;;7.40;;
33421;SDS011;19763;55.798;37.782;2022-07-05T06:16:21;9.45;;;8.07;;
33421;SDS011;19763;55.798;37.782;2022-07-05T06:18:46;9.02;;;7.43;;
33421;SDS011;19763;55.798;37.782;2022-07-05T06:21:12;12.15;;;8.10;;
33421;SDS011;19763;55.798;37.782;2022-07-05T06:23:37;10.52;;;7.75;;
33421;SDS011;19763;55.798;37.782;2022-07-05T06:26:03;7.82;;;7.03;;
33421;SDS011;19763;55.798;37.782;2022-07-05T06:28:28;11.30;;;7.53;;
33421;SDS011;19763;55.798;37.782;2022-07-05T06:30:54;8.68;;;7.65;;
33421;SDS011;19763;55.798;37.782;2022-07-05T06:33:20;9.05;;;8.18;;
33421;SDS011;19763;55.798;37.782;2022-07-05T06:35:45;11.00;;;7.68;;
33421;SDS011;19763;55.798;37.782;2022-07-05T06:38:11;11.98;;;7.78;;
33421;SDS011;19763;55.798;37.782;2022-07-05T06:40:37;10.15;;;8.32;;
33421;SDS011;19763;55.798;37.782;2022-07-05T06:43:06;12.38;;;8.48;;
33421;SDS011;19763;55.798;37.782;2022-07-05T06:45:32;8.68;;;7.93;;
33421;SDS011;19763;55.798;37.782;2022-07-05T06:50:34;14.00;;;7.75;;
33421;SDS011;19763;55.798;37.782;2022-07-05T06:53:01;10.57;;;8.02;;
33421;SDS011;19763;55.798;37.782;2022-07-05T06:55:28;10.43;;;8.07;;
33421;SDS011;19763;55.798;37.782;2022-07-05T06:58:00;11.13;;;8.15;;
33421;SDS011;19763;55.798;37.782;2022-07-05T07:00:30;9.20;;;8.35;;
33421;SDS011;19763;55.798;37.782;2022-07-05T07:03:00;11.27;;;8.40;;
33421;SDS011;19763;55.798;37.782;2022-07-05T07:05:26;9.70;;;8.70;;
33421;SDS011;19763;55.798;37.782;2022-07-05T07:07:52;11.68;;;8.73;;
33421;SDS011;19763;55.798;37.782;2022-07-05T07:10:36;10.93;;;9.10;;
33421;SDS011;19763;55.798;37.782;2022-07-05T07:13:01;11.52;;;8.77;;
33421;SDS011;19763;55.798;37.782;2022-07-05T07:15:28;11.95;;;9.20;;
33421;SDS011;19763;55.798;37.782;2022-07-05T07:17:54;9.50;;;8.63;;
33421;SDS011;19763;55.798;37.782;2022-07-05T07:20:20;11.68;;;9.10;;
33421;SDS011;19763;55.798;37.782;2022-07-05T07:22:46;12.23;;;9.38;;
33421;SDS011;19763;55.798;37.782;2022-07-05T07:25:11;11.45;;;9.20;;
33421;SDS011;19763;55.798;37.782;2022-07-05T07:27:41;9.52;;;8.63;;
33421;SDS011;19763;55.798;37.782;2022-07-05T07:30:14;19.13;;;8.65;;
33421;SDS011;19763;55.798;37.782;2022-07-05T07:32:41;12.35;;;9.93;;
33421;SDS011;19763;55.798;37.782;2022-07-05T07:35:08;11.05;;;9.32;;
33421;SDS011;19763;55.798;37.782;2022-07-05T07:37:34;10.30;;;9.35;;
33421;SDS011;19763;55.798;37.782;2022-07-05T07:40:01;13.77;;;9.40;;
33421;SDS011;19763;55.798;37.782;2022-07-05T07:42:28;16.52;;;9.43;;
33421;SDS011;19763;55.798;37.782;2022-07-05T07:44:54;10.88;;;9.63;;
33421;SDS011;19763;55.798;37.782;2022-07-05T07:47:20;10.45;;;9.32;;
33421;SDS011;19763;55.798;37.782;2022-07-05T07:49:45;11.50;;;9.30;;
33421;SDS011;19763;55.798;37.782;2022-07-05T07:52:11;9.40;;;8.48;;
33421;SDS011;19763;55.798;37.782;2022-07-05T07:54:37;13.48;;;9.27;;
33421;SDS011;19763;55.798;37.782;2022-07-05T07:57:03;10.43;;;8.52;;
33421;SDS011;19763;55.798;37.782;2022-07-05T07:59:30;11.02;;;9.55;;
33421;SDS011;19763;55.798;37.782;2022-07-05T08:01:56;12.40;;;9.70;;
33421;SDS011;19763;55.798;37.782;2022-07-05T08:04:22;10.88;;;9.10;;
33421;SDS011;19763;55.798;37.782;2022-07-05T08:06:47;9.65;;;8.73;;
33421;SDS011;19763;55.798;37.782;2022-07-05T08:09:13;14.68;;;9.20;;
33421;SDS011;19763;55.798;37.782;2022-07-05T08:11:39;10.38;;;9.40;;
33421;SDS011;19763;55.798;37.782;2022-07-05T08:14:05;10.57;;;9.35;;
33421;SDS011;19763;55.798;37.782;2022-07-05T08:16:31;11.88;;;9.70;;
33421;SDS011;19763;55.798;37.782;2022-07-05T08:18:57;13.10;;;9.75;;
33421;SDS011;19763;55.798;37.782;2022-07-05T08:21:42;10.57;;;9.50;;
33421;SDS011;19763;55.798;37.782;2022-07-05T08:24:08;11.30;;;10.20;;
33421;SDS011;19763;55.798;37.782;2022-07-05T08:26:36;11.65;;;9.57;;
33421;SDS011;19763;55.798;37.782;2022-07-05T08:29:06;10.85;;;9.70;;
33421;SDS011;19763;55.798;37.782;2022-07-05T08:31:39;11.75;;;9.65;;
33421;SDS011;19763;55.798;37.782;2022-07-05T08:34:07;11.98;;;9.50;;
33421;SDS011;19763;55.798;37.782;2022-07-05T08:36:32;10.65;;;9.65;;
33421;SDS011;19763;55.798;37.782;2022-07-05T08:38:58;10.73;;;9.60;;
33421;SDS011;19763;55.798;37.782;2022-07-05T08:41:24;11.70;;;10.50;;
33421;SDS011;19763;55.798;37.782;2022-07-05T08:43:50;10.93;;;9.73;;
33421;SDS011;19763;55.798;37.782;2022-07-05T08:46:19;11.40;;;10.30;;
33421;SDS011;19763;55.798;37.782;2022-07-05T08:48:49;11.10;;;9.95;;
33421;SDS011;19763;55.798;37.782;2022-07-05T08:51:19;11.10;;;10.00;;
33421;SDS011;19763;55.798;37.782;2022-07-05T08:53:46;11.40;;;10.35;;
33421;SDS011;19763;55.798;37.782;2022-07-05T08:56:13;13.48;;;10.65;;
33421;SDS011;19763;55.798;37.782;2022-07-05T08:58:39;11.75;;;10.65;;
33421;SDS011;19763;55.798;37.782;2022-07-05T09:01:06;11.38;;;10.20;;
33421;SDS011;19763;55.798;37.782;2022-07-05T09:03:34;10.88;;;9.93;;
33421;SDS011;19763;55.798;37.782;2022-07-05T09:06:22;12.00;;;10.93;;
33421;SDS011;19763;55.798;37.782;2022-07-05T09:08:51;12.05;;;10.95;;
33421;SDS011;19763;55.798;37.782;2022-07-05T09:11:21;12.23;;;11.02;;
33421;SDS011;19763;55.798;37.782;2022-07-05T09:13:51;11.00;;;9.93;;
33421;SDS011;19763;55.798;37.782;2022-07-05T09:16:17;11.98;;;10.57;;
33421;SDS011;19763;55.798;37.782;2022-07-05T09:18:46;12.10;;;10.77;;
33421;SDS011;19763;55.798;37.782;2022-07-05T09:21:21;13.32;;;10.63;;
33421;SDS011;19763;55.798;37.782;2022-07-05T09:23:56;12.13;;;10.88;;
33421;SDS011;19763;55.798;37.782;2022-07-05T09:26:45;11.50;;;10.23;;
33421;SDS011;19763;55.798;37.782;2022-07-05T09:29:16;14.07;;;10.52;;
33421;SDS011;19763;55.798;37.782;2022-07-05T09:31:44;12.15;;;10.93;;
33421;SDS011;19763;55.798;37.782;2022-07-05T09:34:12;12.18;;;11.07;;
33421;SDS011;19763;55.798;37.782;2022-07-05T09:36:46;12.73;;;11.52;;
33421;SDS011;19763;55.798;37.782;2022-07-05T09:39:13;14.57;;;11.80;;
33421;SDS011;19763;55.798;37.782;2022-07-05T09:41:39;12.52;;;11.27;;
33421;SDS011;19763;55.798;37.782;2022-07-05T09:44:04;12.00;;;10.90;;
33421;SDS011;19763;55.798;37.782;2022-07-05T09:46:30;15.18;;;11.82;;
33421;SDS011;19763;55.798;37.782;2022-07-05T09:48:57;13.05;;;11.85;;
33421;SDS011;19763;55.798;37.782;2022-07-05T09:51:22;12.48;;;11.30;;
33421;SDS011;19763;55.798;37.782;2022-07-05T09:53:49;23.17;;;12.40;;
33421;SDS011;19763;55.798;37.782;2022-07-05T09:56:16;19.33;;;13.10;;
33421;SDS011;19763;55.798;37.782;2022-07-05T09:58:45;18.45;;;13.88;;
33421;SDS011;19763;55.798;37.782;2022-07-05T10:01:23;22.27;;;15.43;;
33421;SDS011;19763;55.798;37.782;2022-07-05T10:03:53;24.33;;;16.15;;
33421;SDS011;19763;55.798;37.782;2022-07-05T10:06:23;21.45;;;16.30;;
33421;SDS011;19763;55.798;37.782;2022-07-05T10:08:50;21.08;;;16.58;;
33421;SDS011;19763;55.798;37.782;2022-07-05T10:11:18;21.08;;;17.52;;
33421;SDS011;19763;55.798;37.782;2022-07-05T10:13:45;21.50;;;18.58;;
33421;SDS011;19763;55.798;37.782;2022-07-05T10:16:14;19.40;;;17.17;;
33421;SDS011;19763;55.798;37.782;2022-07-05T10:18:42;20.08;;;17.27;;
33421;SDS011;19763;55.798;37.782;2022-07-05T10:21:11;22.17;;;16.88;;
33421;SDS011;19763;55.798;37.782;2022-07-05T10:23:42;20.35;;;15.80;;
33421;SDS011;19763;55.798;37.782;2022-07-05T10:26:12;19.55;;;15.30;;
33421;SDS011;19763;55.798;37.782;2022-07-05T10:28:39;20.98;;;17.73;;
33421;SDS011;19763;55.798;37.782;2022-07-05T10:31:06;24.95;;;17.92;;
33421;SDS011;19763;55.798;37.782;2022-07-05T10:33:35;19.02;;;17.17;;
33421;SDS011;19763;55.798;37.782;2022-07-05T10:36:01;20.83;;;16.23;;
33421;SDS011;19763;55.798;37.782;2022-07-05T10:38:28;16.60;;;14.60;;
33421;SDS011;19763;55.798;37.782;2022-07-05T10:40:57;15.30;;;13.13;;
33421;SDS011;19763;55.798;37.782;2022-07-05T10:43:27;15.07;;;13.48;;
33421;SDS011;19763;55.798;37.782;2022-07-05T10:45:53;15.32;;;12.55;;
33421;SDS011;19763;55.798;37.782;2022-07-05T10:48:19;13.63;;;11.88;;
33421;SDS011;19763;55.798;37.782;2022-07-05T10:50:53;12.75;;;11.55;;
33421;SDS011;19763;55.798;37.782;2022-07-05T10:53:24;13.25;;;11.82;;
33421;SDS011;19763;55.798;37.782;2022-07-05T11:06:23;42.00;;;20.63;;
33421;SDS011;19763;55.798;37.782;2022-07-05T11:13:50;22.63;;;17.08;;
33421;SDS011;19763;55.798;37.782;2022-07-05T11:16:39;23.27;;;17.98;;
33421;SDS011;19763;55.798;37.782;2022-07-05T11:21:33;23.70;;;15.13;;
33421;SDS011;19763;55.798;37.782;2022-07-05T11:26:45;14.48;;;11.90;;
33421;SDS011;19763;55.798;37.782;2022-07-05T11:32:14;13.00;;;10.50;;
33421;SDS011;19763;55.798;37.782;2022-07-05T11:34:42;15.43;;;11.45;;
33421;SDS011;19763;55.798;37.782;2022-07-05T11:37:27;15.63;;;11.50;;
33421;SDS011;19763;55.798;37.782;2022-07-05T11:42:49;10.23;;;9.23;;
33421;SDS011;19763;55.798;37.782;2022-07-05T11:45:16;13.40;;;9.13;;
33421;SDS011;19763;55.798;37.782;2022-07-05T11:47:42;10.55;;;9.50;;
33421;SDS011;19763;55.798;37.782;2022-07-05T11:50:09;11.38;;;9.52;;
33421;SDS011;19763;55.798;37.782;2022-07-05T11:52:36;12.73;;;10.95;;
33421;SDS011;19763;55.798;37.782;2022-07-05T11:55:03;12.15;;;10.95;;
33421;SDS011;19763;55.798;37.782;2022-07-05T11:57:30;14.82;;;13.30;;
33421;SDS011;19763;55.798;37.782;2022-07-05T11:59:56;14.55;;;10.60;;
33421;SDS011;19763;55.798;37.782;2022-07-05T12:02:22;10.00;;;8.68;;
33421;SDS011;19763;55.798;37.782;2022-07-05T12:04:48;9.90;;;8.70;;
33421;SDS011;19763;55.798;37.782;2022-07-05T12:07:33;9.93;;;9.02;;
33421;SDS011;19763;55.798;37.782;2022-07-05T12:10:00;10.68;;;9.68;;
33421;SDS011;19763;55.798;37.782;2022-07-05T12:12:46;10.25;;;9.35;;
33421;SDS011;19763;55.798;37.782;2022-07-05T12:17:48;10.57;;;9.48;;
33421;SDS011;19763;55.798;37.782;2022-07-05T12:20:20;10.15;;;9.25;;
33421;SDS011;19763;55.798;37.782;2022-07-05T12:22:47;10.88;;;9.98;;
33421;SDS011;19763;55.798;37.782;2022-07-05T12:25:13;12.07;;;10.80;;
33421;SDS011;19763;55.798;37.782;2022-07-05T12:27:41;11.98;;;10.75;;
33421;SDS011;19763;55.798;37.782;2022-07-05T12:30:08;13.18;;;11.77;;
33421;SDS011;19763;55.798;37.782;2022-07-05T12:35:28;12.85;;;11.65;;
33421;SDS011;19763;55.798;37.782;2022-07-05T12:38:04;12.97;;;11.63;;
33421;SDS011;19763;55.798;37.782;2022-07-05T12:40:31;12.07;;;10.98;;
33421;SDS011;19763;55.798;37.782;2022-07-05T12:43:16;14.30;;;12.90;;
33421;SDS011;19763;55.798;37.782;2022-07-05T12:45:44;13.93;;;12.63;;
33421;SDS011;19763;55.798;37.782;2022-07-05T12:48:39;15.13;;;13.60;;
33421;SDS011;19763;55.798;37.782;2022-07-05T12:51:05;16.10;;;14.50;;
33421;SDS011;19763;55.798;37.782;2022-07-05T12:53:32;17.35;;;15.38;;
33421;SDS011;19763;55.798;37.782;2022-07-05T12:56:22;17.48;;;15.82;;
33421;SDS011;19763;55.798;37.782;2022-07-05T12:59:08;14.05;;;12.77;;
33421;SDS011;19763;55.798;37.782;2022-07-05T13:01:37;14.57;;;11.95;;
33421;SDS011;19763;55.798;37.782;2022-07-05T13:07:18;12.27;;;10.85;;
33421;SDS011;19763;55.798;37.782;2022-07-05T13:14:32;17.65;;;13.85;;
33421;SDS011;19763;55.798;37.782;2022-07-05T13:16:58;18.88;;;13.75;;
33421;SDS011;19763;55.798;37.782;2022-07-05T13:19:24;16.25;;;13.85;;
33421;SDS011;19763;55.798;37.782;2022-07-05T13:21:49;17.73;;;14.68;;
33421;SDS011;19763;55.798;37.782;2022-07-05T13:24:15;20.13;;;16.13;;
33421;SDS011;19763;55.798;37.782;2022-07-05T13:26:40;21.40;;;15.63;;
33421;SDS011;19763;55.798;37.782;2022-07-05T13:29:06;16.70;;;15.10;;
33421;SDS011;19763;55.798;37.782;2022-07-05T13:31:31;19.80;;;16.35;;
33421;SDS011;19763;55.798;37.782;2022-07-05T13:33:58;17.17;;;15.45;;
33421;SDS011;19763;55.798;37.782;2022-07-05T13:36:25;18.38;;;16.60;;
33421;SDS011;19763;55.798;37.782;2022-07-05T13:38:51;19.50;;;17.48;;
33421;SDS011;19763;55.798;37.782;2022-07-05T13:41:18;19.60;;;17.63;;
33421;SDS011;19763;55.798;37.782;2022-07-05T13:43:44;31.92;;;25.75;;
33421;SDS011;19763;55.798;37.782;2022-07-05T13:46:10;25.30;;;20.40;;
33421;SDS011;19763;55.798;37.782;2022-07-05T13:48:36;25.45;;;17.90;;
33421;SDS011;19763;55.798;37.782;2022-07-05T13:51:02;20.00;;;14.52;;
33421;SDS011;19763;55.798;37.782;2022-07-05T13:53:28;16.75;;;13.48;;
33421;SDS011;19763;55.798;37.782;2022-07-05T13:55:54;18.08;;;14.20;;
33421;SDS011;19763;55.798;37.782;2022-07-05T13:58:19;18.25;;;12.57;;
33421;SDS011;19763;55.798;37.782;2022-07-05T14:00:45;18.30;;;14.35;;
33421;SDS011;19763;55.798;37.782;2022-07-05T14:03:10;14.13;;;12.63;;
33421;SDS011;19763;55.798;37.782;2022-07-05T14:05:36;17.23;;;11.57;;
33421;SDS011;19763;55.798;37.782;2022-07-05T14:08:02;14.13;;;11.40;;
33421;SDS011;19763;55.798;37.782;2022-07-05T14:10:27;13.13;;;11.45;;
33421;SDS011;19763;55.798;37.782;2022-07-05T14:12:53;13.23;;;10.85;;
33421;SDS011;19763;55.798;37.782;2022-07-05T14:15:19;12.43;;;11.07;;
33421;SDS011;19763;55.798;37.782;2022-07-05T14:17:44;11.90;;;10.43;;
33421;SDS011;19763;55.798;37.782;2022-07-05T14:20:10;13.30;;;10.65;;
33421;SDS011;19763;55.798;37.782;2022-07-05T14:22:36;12.77;;;10.70;;
33421;SDS011;19763;55.798;37.782;2022-07-05T14:25:01;13.02;;;10.82;;
33421;SDS011;19763;55.798;37.782;2022-07-05T14:27:28;15.80;;;11.57;;
33421;SDS011;19763;55.798;37.782;2022-07-05T14:29:54;13.30;;;11.93;;
33421;SDS011;19763;55.798;37.782;2022-07-05T14:32:19;14.52;;;12.45;;
33421;SDS011;19763;55.798;37.782;2022-07-05T14:34:45;14.13;;;12.82;;
33421;SDS011;19763;55.798;37.782;2022-07-05T14:37:10;13.77;;;12.32;;
33421;SDS011;19763;55.798;37.782;2022-07-05T14:39:36;14.25;;;12.63;;
33421;SDS011;19763;55.798;37.782;2022-07-05T14:42:02;15.60;;;12.40;;
33421;SDS011;19763;55.798;37.782;2022-07-05T14:44:28;14.05;;;12.55;;
33421;SDS011;19763;55.798;37.782;2022-07-05T14:46:53;12.98;;;11.65;;
33421;SDS011;19763;55.798;37.782;2022-07-05T14:49:19;14.70;;;12.85;;
33421;SDS011;19763;55.798;37.782;2022-07-05T14:51:44;17.58;;;14.02;;
33421;SDS011;19763;55.798;37.782;2022-07-05T14:54:10;13.43;;;12.05;;
33421;SDS011;19763;55.798;37.782;2022-07-05T14:56:35;16.02;;;13.25;;
33421;SDS011;19763;55.798;37.782;2022-07-05T14:59:01;15.63;;;14.00;;